Time;durP1;ratioP1;P1;durP2;ratioP2;P2;SDS_P1;SDS_P2;PMS_P1;PMS_P2;Temp;Humidity;BMP_temperature;BMP_pressure;BME280_temperature;BME280_humidity;BME280_pressure;Samples;Min_cycle;Max_cycle;Signal;HPM_P1;HPM_P2
2022/09/13 00:00:32;;;;;;;3.30;1.60;;;13.80;99.90;;;;;;5069912;28;20839;-68
2022/09/13 00:02:59;;;;;;;2.00;1.90;;;13.80;99.90;;;;;;5069338;28;21317;-68
2022/09/13 00:05:26;;;;;;;2.20;1.70;;;13.80;99.90;;;;;;5069438;28;20470;-69
2022/09/13 00:07:53;;;;;;;2.00;1.90;;;13.80;99.90;;;;;;5069437;28;20463;-68
2022/09/13 00:10:21;;;;;;;1.77;1.67;;;13.80;99.90;;;;;;5069917;28;20467;-69
2022/09/13 00:12:48;;;;;;;1.97;1.70;;;13.80;99.90;;;;;;5068637;28;20483;-68
2022/09/13 00:15:15;;;;;;;1.80;1.70;;;13.80;99.90;;;;;;5069902;28;20825;-68
2022/09/13 00:17:42;;;;;;;1.90;1.60;;;13.80;99.90;;;;;;5069797;28;20992;-68
2022/09/13 00:20:09;;;;;;;2.33;2.03;;;13.70;99.90;;;;;;5069992;28;20833;-68
2022/09/13 00:22:36;;;;;;;1.97;1.70;;;13.70;99.90;;;;;;5069449;28;20895;-67
2022/09/13 00:25:03;;;;;;;3.10;2.90;;;13.70;99.90;;;;;;5069593;28;20462;-68
2022/09/13 00:27:32;;;;;;;1.70;1.43;;;13.70;99.90;;;;;;5069482;28;20467;-68
2022/09/13 00:29:59;;;;;;;2.60;2.27;;;13.70;99.90;;;;;;5069454;28;20459;-68
2022/09/13 00:32:27;;;;;;;1.77;1.67;;;13.60;99.90;;;;;;5068917;28;20483;-68
2022/09/13 00:34:54;;;;;;;1.67;1.57;;;13.60;99.90;;;;;;5069216;28;20493;-68
2022/09/13 00:37:21;;;;;;;2.00;1.90;;;13.60;99.90;;;;;;5069035;28;20909;-68
2022/09/13 00:39:48;;;;;;;2.40;1.63;;;13.50;99.90;;;;;;5068984;28;20475;-68
2022/09/13 00:42:15;;;;;;;1.57;1.47;;;13.50;99.90;;;;;;5068920;28;20463;-68
2022/09/13 00:44:53;;;;;;;2.40;1.93;;;13.50;99.90;;;;;;5069080;28;20459;-68
2022/09/13 00:47:26;;;;;;;1.60;1.50;;;13.50;99.90;;;;;;5069596;28;20463;-68
2022/09/13 00:49:56;;;;;;;1.77;1.57;;;13.50;99.90;;;;;;5068408;28;20467;-68
2022/09/13 00:52:26;;;;;;;1.93;1.80;;;13.50;99.90;;;;;;5068667;28;20997;-68
2022/09/13 00:54:58;;;;;;;2.67;1.90;;;13.50;99.90;;;;;;5068852;28;20533;-68
2022/09/13 00:57:26;;;;;;;1.80;1.70;;;13.50;99.90;;;;;;5069089;28;20471;-67
2022/09/13 01:00:06;;;;;;;1.90;1.70;;;13.50;99.90;;;;;;5068587;28;20493;-68
2022/09/13 01:02:33;;;;;;;2.10;1.60;;;13.40;99.90;;;;;;5068479;28;20482;-68
2022/09/13 01:05:00;;;;;;;2.47;1.60;;;13.40;99.90;;;;;;5068745;28;20455;-68
2022/09/13 01:07:27;;;;;;;2.07;1.87;;;13.40;99.90;;;;;;5066293;28;20466;-68
2022/09/13 01:09:54;;;;;;;1.80;1.70;;;13.40;99.90;;;;;;5070066;28;20471;-68
2022/09/13 01:12:32;;;;;;;2.03;1.60;;;13.40;99.90;;;;;;5070284;28;21017;-68
2022/09/13 01:15:03;;;;;;;1.60;1.50;;;13.40;99.90;;;;;;5071638;28;20487;-68
2022/09/13 01:17:32;;;;;;;1.90;1.80;;;13.30;99.90;;;;;;5071199;28;20455;-67
2022/09/13 01:20:00;;;;;;;2.60;2.10;;;13.30;99.90;;;;;;5071114;28;20474;-68
2022/09/13 01:23:00;;;;;;;2.33;1.77;;;13.30;99.90;;;;;;5070579;28;20557;-68
2022/09/13 01:26:08;;;;;;;2.60;2.40;;;13.20;99.90;;;;;;5070606;28;20844;-68
2022/09/13 01:29:15;;;;;;;1.77;1.63;;;13.20;99.90;;;;;;5070868;28;20478;-68
2022/09/13 01:31:50;;;;;;;1.47;1.33;;;13.20;99.90;;;;;;5034199;28;20458;-68
2022/09/13 01:34:27;;;;;;;2.00;1.67;;;13.20;99.90;;;;;;5070983;28;20567;-68
2022/09/13 01:37:09;;;;;;;1.90;1.70;;;13.20;99.90;;;;;;5070630;28;20465;-68
2022/09/13 01:39:54;;;;;;;2.10;1.90;;;13.20;99.90;;;;;;5070873;28;20469;-68
2022/09/13 01:42:31;;;;;;;3.50;1.77;;;13.20;99.90;;;;;;5069959;28;20570;-68
2022/09/13 01:45:07;;;;;;;1.77;1.53;;;13.20;99.90;;;;;;5071339;28;20462;-68
2022/09/13 01:47:44;;;;;;;1.47;1.37;;;13.20;99.90;;;;;;5070566;28;20469;-68
2022/09/13 01:50:20;;;;;;;1.60;1.50;;;13.10;99.90;;;;;;5070561;28;20458;-68
2022/09/13 01:52:54;;;;;;;1.67;1.57;;;13.10;99.90;;;;;;5068914;28;20839;-68
2022/09/13 01:55:28;;;;;;;2.13;1.43;;;13.10;99.90;;;;;;5070305;28;20478;-68
2022/09/13 01:58:02;;;;;;;3.30;1.70;;;13.10;99.90;;;;;;5071007;28;20466;-68
2022/09/13 02:00:36;;;;;;;2.30;1.90;;;13.10;99.90;;;;;;5070422;28;20876;-68
2022/09/13 02:03:06;;;;;;;1.90;1.80;;;13.10;99.90;;;;;;5069876;28;20533;-68
2022/09/13 02:05:39;;;;;;;2.23;1.73;;;13.10;99.90;;;;;;5070262;28;20965;-68
2022/09/13 02:08:11;;;;;;;2.43;1.87;;;13.10;99.90;;;;;;5070696;28;20491;-68
2022/09/13 02:10:42;;;;;;;1.90;1.80;;;13.10;99.90;;;;;;5070567;28;20459;-68
2022/09/13 02:13:14;;;;;;;2.03;1.77;;;13.10;99.90;;;;;;5069490;28;21006;-68
2022/09/13 02:15:45;;;;;;;1.77;1.67;;;13.00;99.90;;;;;;5070500;28;20490;-68
2022/09/13 02:18:18;;;;;;;1.70;1.60;;;13.00;99.90;;;;;;5070389;28;20947;-68
2022/09/13 02:20:48;;;;;;;2.03;1.83;;;13.00;99.90;;;;;;5070522;28;20951;-67
2022/09/13 02:23:20;;;;;;;1.67;1.30;;;13.00;99.90;;;;;;5069789;28;20996;-68
2022/09/13 02:25:50;;;;;;;1.90;1.70;;;13.00;99.90;;;;;;5070242;28;20463;-68
2022/09/13 02:28:23;;;;;;;1.80;1.70;;;13.00;99.90;;;;;;5070230;28;20987;-68
2022/09/13 02:30:53;;;;;;;1.43;1.30;;;13.00;99.90;;;;;;5070074;28;20972;-68
2022/09/13 02:33:26;;;;;;;1.80;1.50;;;13.00;99.90;;;;;;5069829;28;20476;-68
2022/09/13 02:35:59;;;;;;;2.13;2.00;;;13.00;99.90;;;;;;5070265;28;20458;-68
2022/09/13 02:38:30;;;;;;;2.20;2.00;;;13.00;99.90;;;;;;5069834;28;20459;-67
2022/09/13 02:41:01;;;;;;;1.97;1.50;;;13.00;99.90;;;;;;5070560;28;20463;-68
2022/09/13 02:43:34;;;;;;;1.47;1.37;;;13.00;99.90;;;;;;5069207;28;20482;-68
2022/09/13 02:46:14;;;;;;;2.20;1.80;;;13.00;99.90;;;;;;5070497;28;20850;-68
2022/09/13 02:48:52;;;;;;;2.13;1.43;;;13.00;99.90;;;;;;5069826;28;20463;-68
2022/09/13 02:51:28;;;;;;;2.20;1.87;;;13.00;99.90;;;;;;5069900;28;20459;-68
2022/09/13 02:54:06;;;;;;;2.03;1.83;;;13.00;99.90;;;;;;5069481;28;20483;-68
2022/09/13 02:56:43;;;;;;;1.47;1.30;;;13.10;99.90;;;;;;5070116;28;20496;-67
2022/09/13 02:59:16;;;;;;;1.83;1.60;;;13.10;99.90;;;;;;5070081;28;20542;-68
2022/09/13 03:01:48;;;;;;;1.90;1.63;;;13.10;99.90;;;;;;5069594;28;20550;-68
2022/09/13 03:04:17;;;;;;;2.33;2.13;;;13.10;99.90;;;;;;5069377;28;20478;-67
2022/09/13 03:06:43;;;;;;;1.97;1.87;;;13.20;99.90;;;;;;5069731;28;20886;-68
2022/09/13 03:09:11;;;;;;;1.87;1.77;;;13.20;99.90;;;;;;5070157;28;20463;-68
2022/09/13 03:11:54;;;;;;;1.63;1.50;;;13.20;99.90;;;;;;5069069;28;20459;-68
2022/09/13 03:14:32;;;;;;;2.67;2.13;;;13.20;99.90;;;;;;5069371;28;20490;-68
2022/09/13 03:17:13;;;;;;;1.90;1.70;;;13.30;99.90;;;;;;5069912;28;20462;-68
2022/09/13 03:20:03;;;;;;;2.30;2.10;;;13.30;99.90;;;;;;5069859;28;20470;-68
2022/09/13 03:23:00;;;;;;;1.70;1.60;;;13.40;99.90;;;;;;5069126;28;20519;-67
2022/09/13 03:25:38;;;;;;;1.93;1.50;;;13.40;99.90;;;;;;5068555;28;20455;-68
2022/09/13 03:28:15;;;;;;;2.00;1.80;;;13.40;99.90;;;;;;5069416;28;20957;-68
2022/09/13 03:30:49;;;;;;;1.93;1.83;;;13.40;99.90;;;;;;5069447;28;20539;-68
2022/09/13 03:33:26;;;;;;;2.47;1.60;;;13.40;99.90;;;;;;5069153;28;20485;-68
2022/09/13 03:36:00;;;;;;;2.07;1.93;;;13.40;99.90;;;;;;5069749;28;20861;-68
2022/09/13 03:38:32;;;;;;;1.90;1.80;;;13.30;99.90;;;;;;5048995;28;20460;-67
2022/09/13 03:41:05;;;;;;;1.70;1.60;;;13.30;99.90;;;;;;5060963;28;20451;-68
2022/09/13 03:43:37;;;;;;;3.80;2.20;;;13.30;99.90;;;;;;5053837;28;20480;-67
2022/09/13 03:46:08;;;;;;;2.03;1.83;;;13.30;99.90;;;;;;5053167;28;20969;-67
2022/09/13 03:48:37;;;;;;;3.50;1.80;;;13.20;99.90;;;;;;5063133;28;20542;-68
2022/09/13 03:51:06;;;;;;;2.37;1.90;;;13.20;99.90;;;;;;5064389;28;20464;-68
2022/09/13 03:53:37;;;;;;;3.20;2.10;;;13.20;99.90;;;;;;5071312;28;20479;-68
2022/09/13 03:56:13;;;;;;;2.50;1.90;;;13.20;99.90;;;;;;5071013;28;20997;-68
2022/09/13 03:58:40;;;;;;;1.90;1.77;;;13.20;99.90;;;;;;5071210;28;20486;-68
2022/09/13 04:01:09;;;;;;;2.00;1.80;;;13.20;99.90;;;;;;5056856;28;20466;-68
2022/09/13 04:03:36;;;;;;;2.20;2.00;;;13.20;99.90;;;;;;5051083;28;21158;-68
2022/09/13 04:06:02;;;;;;;2.73;2.17;;;13.20;99.90;;;;;;5052125;28;20981;-68
2022/09/13 04:08:30;;;;;;;2.40;2.20;;;13.20;99.90;;;;;;5051986;28;20459;-67
2022/09/13 04:10:57;;;;;;;2.30;2.07;;;13.20;99.90;;;;;;5051906;28;20463;-68
2022/09/13 04:13:24;;;;;;;1.90;1.77;;;13.10;99.90;;;;;;5051503;28;20504;-68
2022/09/13 04:15:51;;;;;;;2.00;1.80;;;13.10;99.90;;;;;;5051855;28;20480;-68
2022/09/13 04:18:18;;;;;;;1.50;1.40;;;13.10;99.90;;;;;;5056847;28;20459;-67
2022/09/13 04:20:44;;;;;;;2.53;1.63;;;13.10;99.90;;;;;;5070837;28;20462;-68
2022/09/13 04:23:11;;;;;;;2.42;1.98;;;13.00;99.90;;;;;;5070117;28;20463;-67
2022/09/13 04:25:40;;;;;;;3.53;2.27;;;13.00;99.90;;;;;;5052171;28;20669;-67
2022/09/13 04:28:07;;;;;;;2.20;2.00;;;13.00;99.90;;;;;;5050770;28;20499;-67
2022/09/13 04:30:33;;;;;;;2.67;2.00;;;13.00;99.90;;;;;;5051777;28;20467;-68
2022/09/13 04:33:00;;;;;;;2.37;1.73;;;12.90;99.90;;;;;;5051628;28;20484;-68
2022/09/13 04:35:27;;;;;;;2.20;2.00;;;12.90;99.90;;;;;;5051666;28;20484;-68
2022/09/13 04:37:55;;;;;;;2.30;2.00;;;12.90;99.90;;;;;;5052445;28;20464;-69
2022/09/13 04:40:22;;;;;;;1.97;1.87;;;12.90;99.90;;;;;;5051498;28;20495;-68
2022/09/13 04:42:50;;;;;;;2.80;2.20;;;12.90;99.90;;;;;;5051329;28;20530;-68
2022/09/13 04:45:17;;;;;;;1.97;1.77;;;12.90;99.90;;;;;;5052162;28;20456;-68
2022/09/13 04:47:44;;;;;;;2.60;2.00;;;12.90;99.90;;;;;;5051862;28;20854;-68
2022/09/13 04:50:11;;;;;;;1.80;1.70;;;12.90;99.90;;;;;;5051577;28;20456;-68
2022/09/13 04:52:38;;;;;;;2.67;2.27;;;12.90;99.90;;;;;;5049791;28;20483;-68
2022/09/13 04:55:06;;;;;;;2.40;2.17;;;12.90;99.90;;;;;;5052014;28;20487;-68
2022/09/13 04:57:33;;;;;;;1.87;1.70;;;13.00;99.90;;;;;;5050655;28;20521;-68
2022/09/13 05:00:01;;;;;;;1.87;1.70;;;13.00;99.90;;;;;;5051554;28;20497;-68
2022/09/13 05:02:28;;;;;;;3.83;1.90;;;13.00;99.90;;;;;;5050902;28;20494;-68
2022/09/13 05:04:55;;;;;;;2.10;1.93;;;13.00;99.90;;;;;;5051006;28;20456;-68
2022/09/13 05:07:22;;;;;;;2.43;2.10;;;13.00;99.90;;;;;;5051666;28;20459;-68
2022/09/13 05:09:48;;;;;;;2.30;2.10;;;13.10;99.90;;;;;;5051379;28;20464;-69
2022/09/13 05:12:15;;;;;;;2.30;2.10;;;13.10;99.90;;;;;;5050448;28;20464;-68
2022/09/13 05:14:42;;;;;;;2.73;2.30;;;13.10;99.90;;;;;;5051397;28;20488;-68
2022/09/13 05:17:10;;;;;;;2.70;2.10;;;13.10;99.90;;;;;;5051012;28;20496;-68
2022/09/13 05:19:37;;;;;;;2.37;1.80;;;13.10;99.90;;;;;;5050956;28;20522;-68
2022/09/13 05:24:29;;;;;;;4.10;2.13;;;13.10;99.90;;;;;;5095164;23;20496;-70
2022/09/13 05:26:55;;;;;;;2.20;2.00;;;13.10;99.90;;;;;;5031695;28;20195;-70
2022/09/13 05:29:22;;;;;;;2.10;1.80;;;13.10;99.90;;;;;;5031572;28;20461;-70
2022/09/13 05:31:49;;;;;;;2.90;2.17;;;13.10;99.90;;;;;;5031226;28;20461;-70
2022/09/13 05:34:18;;;;;;;2.80;2.57;;;13.10;99.90;;;;;;5031180;28;21018;-70
2022/09/13 05:36:45;;;;;;;2.53;2.33;;;13.10;99.90;;;;;;5031415;28;21005;-69
2022/09/13 05:39:14;;;;;;;1.70;1.50;;;13.20;99.90;;;;;;5030773;28;20461;-69
2022/09/13 05:41:41;;;;;;;3.20;2.77;;;13.20;99.90;;;;;;5031273;28;20484;-69
2022/09/13 05:44:08;;;;;;;2.17;1.97;;;13.20;99.90;;;;;;5031083;28;20987;-68
2022/09/13 05:46:35;;;;;;;3.33;2.43;;;13.20;99.90;;;;;;5030732;28;20535;-70
2022/09/13 05:49:01;;;;;;;2.50;2.07;;;13.20;99.90;;;;;;5031216;28;20456;-68
2022/09/13 05:51:29;;;;;;;2.13;1.93;;;13.20;99.90;;;;;;5030707;28;20471;-68
2022/09/13 05:53:58;;;;;;;2.23;2.00;;;13.20;99.90;;;;;;5030837;28;20485;-70
2022/09/13 05:56:27;;;;;;;2.63;2.40;;;13.20;99.90;;;;;;5030859;28;20858;-69
2022/09/13 05:58:54;;;;;;;2.20;2.00;;;13.30;99.90;;;;;;5030878;28;20461;-69
2022/09/13 06:01:23;;;;;;;2.87;2.17;;;13.30;99.90;;;;;;5031014;28;20550;-69
2022/09/13 06:03:50;;;;;;;2.37;2.10;;;13.30;99.90;;;;;;5029602;28;20489;-69
2022/09/13 06:06:18;;;;;;;2.77;2.40;;;13.30;99.90;;;;;;5029501;28;20975;-69
2022/09/13 06:08:47;;;;;;;2.40;2.20;;;13.40;99.90;;;;;;5030950;28;20471;-69
2022/09/13 06:11:15;;;;;;;4.53;1.90;;;13.40;99.90;;;;;;5030701;28;20460;-69
2022/09/13 06:13:42;;;;;;;3.80;2.60;;;13.40;99.90;;;;;;5029587;28;21031;-69
2022/09/13 06:16:11;;;;;;;2.97;2.20;;;13.50;99.90;;;;;;5030188;28;20516;-69
2022/09/13 06:18:38;;;;;;;2.50;2.27;;;13.60;99.90;;;;;;5030121;28;20532;-69
2022/09/13 06:21:07;;;;;;;2.40;2.20;;;13.60;99.90;;;;;;5030297;28;20461;-69
2022/09/13 06:23:35;;;;;;;2.30;2.10;;;13.70;99.90;;;;;;5029622;28;20489;-69
2022/09/13 06:26:06;;;;;;;1.57;1.43;;;13.70;99.90;;;;;;5030266;28;20452;-69
2022/09/13 06:28:34;;;;;;;2.37;2.17;;;13.80;99.90;;;;;;5031989;28;20979;-69
2022/09/13 06:31:02;;;;;;;1.97;1.87;;;13.80;99.90;;;;;;5030515;28;20461;-69
2022/09/13 06:33:29;;;;;;;2.40;2.20;;;13.90;99.90;;;;;;5035350;28;20479;-69
2022/09/13 06:35:59;;;;;;;2.53;2.10;;;13.90;99.90;;;;;;5050143;28;20495;-69
2022/09/13 06:38:26;;;;;;;2.53;2.10;;;13.90;99.90;;;;;;5049311;28;20459;-68
2022/09/13 06:41:00;;;;;;;2.13;1.93;;;13.90;99.90;;;;;;5050754;28;20471;-69
2022/09/13 06:43:28;;;;;;;2.87;2.40;;;13.90;99.90;;;;;;5049169;28;20483;-69
2022/09/13 06:46:00;;;;;;;2.30;2.10;;;14.00;99.90;;;;;;5049802;28;20499;-69
2022/09/13 06:48:27;;;;;;;1.93;1.83;;;14.10;99.90;;;;;;5049711;28;20495;-67
2022/09/13 06:50:57;;;;;;;2.30;2.00;;;14.10;99.90;;;;;;5049664;28;20460;-68
2022/09/13 06:53:24;;;;;;;2.50;2.17;;;14.20;99.90;;;;;;5049394;28;20476;-68
2022/09/13 06:56:00;;;;;;;2.27;2.07;;;14.40;99.90;;;;;;5049376;28;21025;-69
2022/09/13 06:58:30;;;;;;;2.20;2.00;;;14.50;99.90;;;;;;5049590;28;20542;-69
2022/09/13 07:01:09;;;;;;;2.27;2.07;;;14.60;99.90;;;;;;5049576;28;20983;-69
2022/09/13 07:03:35;;;;;;;2.73;2.37;;;14.70;99.90;;;;;;5048686;28;20480;-72
2022/09/13 07:06:07;;;;;;;2.70;2.50;;;14.80;99.90;;;;;;5050034;28;20472;-68
2022/09/13 07:08:34;;;;;;;3.13;2.83;;;15.00;99.90;;;;;;5049555;28;20824;-73
2022/09/13 07:11:01;;;;;;;3.47;3.17;;;15.10;99.90;;;;;;5049673;28;20468;-68
2022/09/13 07:13:29;;;;;;;3.80;2.80;;;15.30;99.90;;;;;;5048634;28;20487;-72
2022/09/13 07:15:56;;;;;;;4.20;2.90;;;15.40;99.90;;;;;;5051404;28;20484;-68
2022/09/13 07:18:22;;;;;;;3.10;2.80;;;15.60;99.90;;;;;;5053240;28;20795;-67
2022/09/13 07:20:49;;;;;;;3.60;3.00;;;15.70;99.90;;;;;;5053512;28;20463;-67
2022/09/13 07:23:16;;;;;;;4.97;3.50;;;15.80;99.90;;;;;;5053057;28;20491;-67
2022/09/13 07:25:42;;;;;;;3.13;2.83;;;15.80;99.90;;;;;;5052457;28;20885;-67
2022/09/13 07:28:09;;;;;;;4.20;2.77;;;16.00;99.90;;;;;;5053466;28;20467;-68
2022/09/13 07:30:38;;;;;;;4.03;2.97;;;16.10;99.90;;;;;;5053391;28;20468;-69
2022/09/13 07:33:04;;;;;;;3.30;3.00;;;16.20;99.90;;;;;;5052692;28;20494;-69
2022/09/13 07:35:31;;;;;;;4.17;3.47;;;16.30;99.90;;;;;;5053344;28;20480;-69
2022/09/13 07:37:58;;;;;;;4.33;3.30;;;16.40;99.90;;;;;;5050465;28;20860;-68
2022/09/13 07:40:24;;;;;;;4.07;3.30;;;16.50;99.90;;;;;;5050457;28;20558;-69
2022/09/13 07:42:51;;;;;;;3.90;2.97;;;16.60;99.90;;;;;;5049212;28;20476;-69
2022/09/13 07:45:18;;;;;;;3.60;3.30;;;16.80;99.90;;;;;;5049655;28;20472;-69
2022/09/13 07:47:47;;;;;;;3.80;3.13;;;16.90;99.90;;;;;;5052350;28;20464;-68
2022/09/13 07:50:14;;;;;;;4.10;2.90;;;17.10;99.90;;;;;;5052643;28;20456;-68
2022/09/13 07:52:41;;;;;;;4.17;3.60;;;17.40;99.90;;;;;;5052489;28;20491;-69
2022/09/13 07:55:08;;;;;;;4.43;3.80;;;17.50;99.90;;;;;;5053112;28;20460;-70
2022/09/13 07:57:35;;;;;;;4.93;3.10;;;17.70;99.90;;;;;;5048886;28;20451;-68
2022/09/13 08:00:03;;;;;;;4.43;3.23;;;17.80;99.90;;;;;;5052313;28;20463;-69
2022/09/13 08:02:30;;;;;;;4.03;3.63;;;18.00;99.90;;;;;;5051571;28;20475;-70
2022/09/13 08:04:58;;;;;;;5.37;3.07;;;18.20;99.90;;;;;;5052159;28;20570;-68
2022/09/13 08:07:24;;;;;;;3.83;3.37;;;18.50;99.90;;;;;;5052469;28;20460;-69
2022/09/13 08:09:51;;;;;;;3.13;2.83;;;18.70;99.90;;;;;;5050879;28;20468;-68
2022/09/13 08:12:18;;;;;;;3.03;2.70;;;18.90;99.90;;;;;;5052378;28;20459;-68
2022/09/13 08:14:44;;;;;;;2.63;2.43;;;19.10;99.90;;;;;;5052042;28;20467;-67
2022/09/13 08:17:11;;;;;;;2.57;2.27;;;19.30;99.90;;;;;;5052675;28;20849;-68
2022/09/13 08:19:38;;;;;;;2.63;2.40;;;19.40;99.90;;;;;;5051933;28;20464;-68
2022/09/13 08:22:06;;;;;;;3.27;2.80;;;19.50;99.90;;;;;;5052052;28;20465;-68
2022/09/13 08:24:33;;;;;;;2.90;2.60;;;19.60;99.90;;;;;;5052434;28;20467;-68
2022/09/13 08:27:00;;;;;;;3.10;2.80;;;19.60;99.90;;;;;;5051139;28;20459;-68
2022/09/13 08:29:27;;;;;;;2.30;2.10;;;19.60;99.90;;;;;;5052152;28;20463;-70
2022/09/13 08:31:53;;;;;;;2.70;2.47;;;19.70;99.90;;;;;;5051586;28;20514;-69
2022/09/13 08:34:20;;;;;;;2.80;2.50;;;19.80;99.90;;;;;;5052302;28;20497;-70
2022/09/13 08:36:47;;;;;;;4.70;2.40;;;19.80;99.90;;;;;;5051900;28;20481;-69
2022/09/13 08:39:15;;;;;;;4.77;2.60;;;20.00;99.90;;;;;;5051570;28;20467;-68
2022/09/13 08:42:03;;;;;;;2.23;1.97;;;20.10;99.90;;;;;;5051357;28;20526;-67
2022/09/13 08:44:33;;;;;;;2.37;2.00;;;20.30;99.90;;;;;;5051968;28;20467;-68
2022/09/13 08:47:06;;;;;;;3.63;2.40;;;20.40;99.90;;;;;;5051910;28;21084;-68
2022/09/13 08:49:39;;;;;;;2.60;1.93;;;20.50;99.90;;;;;;5051504;28;20865;-68
2022/09/13 08:52:20;;;;;;;2.83;2.60;;;20.80;99.90;;;;;;5051925;28;20974;-69
2022/09/13 08:54:50;;;;;;;2.90;2.70;;;20.90;99.90;;;;;;5051864;28;20462;-69
2022/09/13 08:57:21;;;;;;;2.80;2.37;;;21.00;99.90;;;;;;5051998;28;20810;-70
2022/09/13 09:00:00;;;;;;;2.80;2.60;;;21.10;99.90;;;;;;5051514;28;20470;-69
2022/09/13 09:02:48;;;;;;;2.30;2.03;;;21.10;99.90;;;;;;5050867;28;20832;-70
2022/09/13 09:05:18;;;;;;;1.80;1.70;;;21.10;99.90;;;;;;5052206;28;20502;-70
2022/09/13 09:07:50;;;;;;;8.20;2.77;;;21.10;99.90;;;;;;5051476;28;20830;-68
2022/09/13 09:10:22;;;;;;;2.40;2.20;;;21.20;99.90;;;;;;5051474;28;20464;-68
2022/09/13 09:12:54;;;;;;;3.20;2.40;;;21.40;99.90;;;;;;5051306;28;20562;-68
2022/09/13 09:15:24;;;;;;;3.70;2.23;;;21.60;99.90;;;;;;5051429;28;20490;-69
2022/09/13 09:17:58;;;;;;;3.30;2.40;;;21.80;99.90;;;;;;5051015;28;20729;-68
2022/09/13 09:20:31;;;;;;;3.20;2.00;;;21.90;99.90;;;;;;5051791;28;20811;-68
2022/09/13 09:23:02;;;;;;;2.90;1.93;;;22.00;99.90;;;;;;5051054;28;20498;-68
2022/09/13 09:25:31;;;;;;;2.50;2.20;;;22.00;99.90;;;;;;5051102;28;20456;-68
2022/09/13 09:27:59;;;;;;;1.90;1.80;;;21.90;99.90;;;;;;5050967;28;20466;-68
2022/09/13 09:30:34;;;;;;;3.10;2.00;;;22.00;99.90;;;;;;5050926;28;20832;-68
2022/09/13 09:33:25;;;;;;;2.10;1.77;;;22.20;99.90;;;;;;5049341;28;20474;-68
2022/09/13 09:36:00;;;;;;;1.93;1.83;;;22.50;99.90;;;;;;5050483;28;20467;-68
2022/09/13 09:38:35;;;;;;;2.10;1.90;;;22.70;99.90;;;;;;5049534;28;20559;-68
2022/09/13 09:41:10;;;;;;;2.00;1.80;;;22.80;99.90;;;;;;5050208;28;20460;-68
2022/09/13 09:43:44;;;;;;;2.10;1.90;;;23.00;99.90;;;;;;5029968;28;20487;-68
2022/09/13 09:46:14;;;;;;;2.53;1.90;;;23.00;99.90;;;;;;5030964;28;20484;-68
2022/09/13 09:48:48;;;;;;;1.93;1.80;;;23.00;99.90;;;;;;5029892;28;20511;-68
2022/09/13 09:51:17;;;;;;;2.07;1.93;;;23.10;99.90;;;;;;5045670;28;20468;-68
2022/09/13 09:53:48;;;;;;;3.30;2.03;;;23.20;99.90;;;;;;5049841;28;20579;-68
2022/09/13 09:56:28;;;;;;;1.87;1.53;;;23.40;99.90;;;;;;5050418;28;20579;-67
2022/09/13 09:58:55;;;;;;;4.33;1.70;;;23.50;99.90;;;;;;5050234;28;20470;-66
2022/09/13 10:01:25;;;;;;;2.70;1.67;;;23.60;99.90;;;;;;5050589;28;20460;-67
2022/09/13 10:03:57;;;;;;;1.70;1.60;;;23.60;99.90;;;;;;5049154;28;20480;-67
2022/09/13 10:06:27;;;;;;;4.40;1.80;;;23.70;99.90;;;;;;5050409;28;20456;-66
2022/09/13 10:08:58;;;;;;;3.40;1.70;;;23.70;99.90;;;;;;5050102;28;20464;-67
2022/09/13 10:11:43;;;;;;;2.10;1.90;;;23.90;99.90;;;;;;5050464;28;20495;-66
2022/09/13 10:14:45;;;;;;;1.43;1.33;;;24.10;99.90;;;;;;5051074;28;20484;-67
2022/09/13 10:17:17;;;;;;;1.30;1.20;;;24.20;99.90;;;;;;5043869;28;20482;-67
2022/09/13 10:19:58;;;;;;;1.70;1.30;;;24.30;99.90;;;;;;5050610;28;20816;-67
2022/09/13 10:22:25;;;;;;;1.97;1.53;;;24.30;99.90;;;;;;5050075;28;20934;-67
2022/09/13 10:24:52;;;;;;;9.37;1.77;;;24.30;99.90;;;;;;5050381;28;20467;-67
2022/09/13 10:27:25;;;;;;;1.40;1.30;;;24.30;99.90;;;;;;5050085;28;20470;-67
2022/09/13 10:29:58;;;;;;;1.33;1.23;;;24.40;99.90;;;;;;5050045;28;20460;-67
2022/09/13 10:32:25;;;;;;;1.20;1.07;;;24.60;99.90;;;;;;5049725;28;21043;-67
2022/09/13 10:34:54;;;;;;;1.30;1.10;;;24.70;99.90;;;;;;5049939;28;20460;-67
2022/09/13 10:37:24;;;;;;;1.27;1.17;;;24.90;99.90;;;;;;5050109;28;20861;-67
2022/09/13 10:40:00;;;;;;;1.80;1.63;;;24.90;99.90;;;;;;5048732;28;20460;-66
2022/09/13 10:42:29;;;;;;;1.87;1.30;;;25.10;99.90;;;;;;5049097;28;20479;-67
2022/09/13 10:44:59;;;;;;;1.40;1.30;;;25.20;99.90;;;;;;5049457;28;20464;-67
2022/09/13 10:47:32;;;;;;;1.93;1.23;;;25.40;99.90;;;;;;5049173;28;20456;-67
2022/09/13 10:50:10;;;;;;;1.53;1.43;;;25.60;99.90;;;;;;5049755;28;20472;-67
2022/09/13 10:52:43;;;;;;;1.60;1.30;;;25.80;99.90;;;;;;5052289;28;20483;-66
2022/09/13 10:55:32;;;;;;;1.77;1.63;;;26.00;99.90;;;;;;5053610;28;20456;-67
2022/09/13 10:58:20;;;;;;;1.50;1.40;;;26.20;99.90;;;;;;5052778;28;20490;-67
2022/09/13 11:01:18;;;;;;;1.70;1.13;;;26.40;99.90;;;;;;5053174;28;20470;-67
2022/09/13 11:04:20;;;;;;;1.73;1.10;;;26.50;99.90;;;;;;5051824;28;20486;-67
2022/09/13 11:06:55;;;;;;;1.20;1.10;;;26.60;99.90;;;;;;5042566;28;20807;-67
2022/09/13 11:09:31;;;;;;;1.60;1.50;;;26.80;99.90;;;;;;5052720;28;20463;-67
2022/09/13 11:12:07;;;;;;;1.30;1.20;;;26.90;99.90;;;;;;5052574;28;21016;-67
2022/09/13 11:14:49;;;;;;;1.20;1.07;;;27.10;99.90;;;;;;5053285;28;20529;-68
2022/09/13 11:17:25;;;;;;;1.50;1.40;;;27.30;99.90;;;;;;5052591;28;20490;-67
2022/09/13 11:20:05;;;;;;;1.87;1.30;;;27.40;99.90;;;;;;5053695;28;20471;-68
2022/09/13 11:25:21;;;;;;;1.33;1.23;;;27.50;99.00;;;;;;4787988;22;20639;-68
2022/09/13 11:27:58;;;;;;;2.20;1.37;;;27.60;99.00;;;;;;5033465;28;20817;-69
2022/09/13 11:30:28;;;;;;;1.20;1.10;;;27.60;99.30;;;;;;5033652;28;20472;-70
2022/09/13 11:33:19;;;;;;;1.53;1.27;;;27.60;97.70;;;;;;5033064;28;20480;-69
2022/09/13 11:36:25;;;;;;;1.20;1.10;;;27.70;98.30;;;;;;5033547;28;20460;-69
2022/09/13 11:39:04;;;;;;;0.93;0.80;;;27.40;93.20;;;;;;5033072;28;20453;-70
2022/09/13 11:41:41;;;;;;;1.00;0.80;;;27.40;97.40;;;;;;5033354;28;20515;-69
2022/09/13 11:44:28;;;;;;;1.13;1.03;;;27.50;96.20;;;;;;5032811;28;20483;-69
2022/09/13 11:47:06;;;;;;;1.10;0.90;;;27.40;97.70;;;;;;5033141;28;20463;-69
2022/09/13 11:49:57;;;;;;;1.20;1.10;;;27.50;97.30;;;;;;5033066;28;20456;-69
2022/09/13 11:52:37;;;;;;;1.13;1.00;;;27.50;96.90;;;;;;5032597;28;20512;-69
2022/09/13 11:55:17;;;;;;;1.10;0.90;;;27.20;92.80;;;;;;5033077;28;20503;-69
2022/09/13 11:57:47;;;;;;;1.20;1.10;;;27.10;95.40;;;;;;5032940;28;20900;-69
2022/09/13 12:00:21;;;;;;;1.30;1.03;;;27.00;93.60;;;;;;5051056;28;20506;-71
2022/09/13 12:02:59;;;;;;;1.17;1.03;;;26.80;93.00;;;;;;5051112;28;20475;-70
2022/09/13 12:05:30;;;;;;;1.10;1.00;;;26.70;96.30;;;;;;5052959;28;20466;-69
2022/09/13 12:08:02;;;;;;;1.10;1.00;;;26.50;97.80;;;;;;5050252;28;20950;-70
2022/09/13 12:10:34;;;;;;;1.33;1.00;;;26.40;95.40;;;;;;5052057;28;20464;-69
2022/09/13 12:13:03;;;;;;;1.00;0.90;;;26.20;95.70;;;;;;5028915;28;20858;-68
2022/09/13 12:15:36;;;;;;;1.30;1.10;;;26.00;94.90;;;;;;5031829;28;20464;-71
2022/09/13 12:18:08;;;;;;;1.50;0.90;;;25.90;96.90;;;;;;5030714;28;20525;-71
2022/09/13 12:20:39;;;;;;;1.20;1.00;;;25.80;96.60;;;;;;5031290;28;20492;-71
2022/09/13 12:23:14;;;;;;;1.17;0.90;;;25.80;96.20;;;;;;5030849;28;20485;-71
2022/09/13 12:25:47;;;;;;;2.40;1.30;;;25.80;99.90;;;;;;5031206;28;20468;-69
2022/09/13 12:28:21;;;;;;;1.40;1.10;;;25.70;97.60;;;;;;5030669;28;20457;-69
2022/09/13 12:30:54;;;;;;;1.07;0.97;;;25.80;97.30;;;;;;5030839;28;20461;-71
2022/09/13 12:33:22;;;;;;;1.23;1.13;;;26.00;97.40;;;;;;5030658;28;20488;-68
2022/09/13 12:36:09;;;;;;;1.30;1.10;;;26.20;99.60;;;;;;5031173;28;20560;-70
2022/09/13 12:39:00;;;;;;;1.50;1.40;;;26.30;98.00;;;;;;5031065;28;20495;-68
2022/09/13 12:41:46;;;;;;;1.53;1.10;;;26.30;96.90;;;;;;5031170;28;21022;-70
2022/09/13 12:44:34;;;;;;;1.23;1.13;;;26.30;98.20;;;;;;5030388;28;20485;-71
2022/09/13 12:47:24;;;;;;;1.13;1.03;;;26.40;99.40;;;;;;5028920;28;20456;-68
2022/09/13 12:50:17;;;;;;;1.40;1.00;;;26.40;98.00;;;;;;5034436;28;20472;-68
2022/09/13 12:52:52;;;;;;;1.43;1.10;;;26.40;98.70;;;;;;5028832;28;20481;-69
2022/09/13 12:55:46;;;;;;;1.50;1.40;;;26.50;99.60;;;;;;5031732;28;20460;-69
2022/09/13 12:58:46;;;;;;;1.20;1.07;;;26.50;98.50;;;;;;5034136;28;20906;-71
2022/09/13 13:01:17;;;;;;;1.30;1.20;;;26.40;97.20;;;;;;5031980;28;20675;-69
2022/09/13 13:03:50;;;;;;;2.13;1.40;;;26.50;98.10;;;;;;5033626;28;20850;-68
2022/09/13 13:06:29;;;;;;;1.33;1.23;;;26.70;99.20;;;;;;5032094;28;21026;-69
2022/09/13 13:08:59;;;;;;;1.37;1.27;;;26.80;98.60;;;;;;5034163;28;20455;-68
2022/09/13 13:11:28;;;;;;;1.60;1.40;;;26.80;98.30;;;;;;5030401;28;20452;-68
2022/09/13 13:13:57;;;;;;;1.60;1.17;;;26.90;99.90;;;;;;5032831;28;20563;-70
2022/09/13 13:16:28;;;;;;;2.10;1.40;;;27.00;99.20;;;;;;5036676;28;20461;-69
2022/09/13 13:18:56;;;;;;;1.37;1.20;;;27.00;98.20;;;;;;5035009;28;20481;-69